Telemetry
Timestamp Node Air Util TX Channel Util Battery Uptime Voltage Current Barometric Pressure Relative Humidity Temperature Gas Resistance
2026-09-05 23:47:30 TTBM 1.56% 1.1% 101% 40161 4.36 V
2026-09-05 23:47:30 TTBM 1.56% 1.1% 101% 40161 4.36 V
2026-09-05 23:47:22 Jim1 1.07% 0.0% 94% 17625163 4.11 V
2026-09-05 23:47:20 Jim1 1.07% 0.0% 94% 17625163 4.11 V
2026-09-05 23:47:20 Jim1 1.07% 0.0% 94% 17625163 4.11 V
2026-09-05 23:45:36 WCS1 0.54% 0.0% 101% 83732 1.31 V
2026-09-05 23:45:36 WCS1 0.54% 0.0% 101% 83732 1.31 V
2026-09-05 23:45:08 ah02 74.6% 15.73°C
2026-09-05 23:45:08 ah02 74.6% 15.73°C
2026-09-05 23:44:43 ah02 0.04% 15.6% 68% 61 3.88 V
2026-09-05 23:44:43 ah02 0.04% 15.6% 68% 61 3.88 V
2026-09-05 23:44:36 WCS1 861.39 hPa 42.52% 22.18°C
2026-09-05 23:44:36 WCS1 861.39 hPa 42.52% 22.18°C
2026-09-05 23:44:35 LML2 0.2% 0.0% 100% 792846 4.15 V
2026-09-05 23:44:35 LML2 0.2% 0.0% 100% 792846 4.15 V
2026-09-05 23:43:07 EN06 0.35% 3.2% 48% 373029 3.71 V
2026-09-05 23:43:07 EN06 0.35% 3.2% 48% 373029 3.71 V
2026-09-05 23:43:04 BB04 1.11% 0.0% 101% 1131942 -0.0 V
2026-09-05 23:43:04 BB04 1.11% 0.0% 101% 1131942 -0.0 V
2026-09-05 23:41:58 ah01 0.44% 0.0% 96% 6441222 4.15 V
2026-09-05 23:41:58 TG08 21.84°C
2026-09-05 23:41:58 ah01 0.44% 0.0% 96% 6441222 4.15 V
2026-09-05 23:41:51 ah01 0.44% 0.0% 96% 6441222 4.15 V
2026-09-05 23:41:51 ah01 0.44% 0.0% 96% 6441222 4.15 V
2026-09-05 23:40:35 WCS1 0.54% 0.0% 101% 83431 1.3 V
2026-09-05 23:40:35 WCS1 0.54% 0.0% 101% 83431 1.3 V
2026-09-05 23:40:15 LRX1 0.75% 2.0% 101% 8443103 4.83 V
2026-09-05 23:40:15 LRX1 1010.06 hPa 36.94% 24.28°C
2026-09-05 23:40:14 LRX1 0.75% 2.0% 101% 8443103 4.83 V
2026-09-05 23:40:06 LRX1 0.75% 2.0% 101% 8443103 4.83 V
2026-09-05 23:40:06 LRX1 0.75% 2.0% 101% 8443103 4.83 V
2026-09-05 23:39:35 WCS1 861.4 hPa 42.52% 22.19°C
2026-09-05 23:39:35 WCS1 861.4 hPa 42.52% 22.19°C
2026-09-05 23:36:46 PTRH 0.58% 0.0% 54% 1680948 3.76 V
2026-09-05 23:36:45 PTRH 0.58% 0.0% 54% 1680948 3.76 V
2026-09-05 23:36:24 2c98 0.05% 0.0% 101% 154912 4.41 V
2026-09-05 23:36:23 2c98 0.05% 0.0% 101% 154912 4.41 V
2026-09-05 23:35:34 WCS1 0.54% 0.0% 101% 83130 1.3 V
2026-09-05 23:35:34 WCS1 0.54% 0.0% 101% 83130 1.3 V
2026-09-05 23:35:14 Rhee 0.85% 2.1% 93% 294600 4.0 V
2026-09-05 23:35:14 Rhee 0.85% 2.1% 93% 294600 4.0 V
2026-09-05 23:34:34 WCS1 861.38 hPa 42.53% 22.19°C
2026-09-05 23:34:34 WCS1 861.38 hPa 42.53% 22.19°C
2026-09-05 23:33:47 EEPr 0.59% 6.0% 101% 2552718 4.33 V
2026-09-05 23:33:47 EEPr 0.59% 6.0% 101% 2552718 4.33 V
2026-09-05 23:33:33 RF03 0.12% 1.2% 99% 1438851 4.18 V
2026-09-05 23:33:33 RF03 0.12% 1.2% 99% 1438851 4.18 V
2026-09-05 23:33:33 RF03 0.12% 1.2% 99% 1438851 4.18 V
2026-09-05 23:30:57 IIXF 1.05% 8.8% 100% 1415566 4.19 V
2026-09-05 23:30:56 IIXF 1.05% 8.8% 100% 1415566 4.19 V
2026-09-05 23:30:33 WCS1 0.54% 0.0% 101% 82829 1.3 V
2026-09-05 23:30:33 WCS1 0.54% 0.0% 101% 82829 1.3 V
2026-09-05 23:30:15 IIXF 856.98 hPa 64.34% 14.94°C 95.04 Ohm
2026-09-05 23:30:15 IIXF 856.98 hPa 64.34% 14.94°C 95.04 Ohm
2026-09-05 23:29:53 ah03 696.34 hPa 65.13% 27.0°C
2026-09-05 23:29:53 ah03 696.34 hPa 65.13% 27.0°C
2026-09-05 23:29:33 WCS1 861.18 hPa 42.51% 22.19°C
2026-09-05 23:29:33 WCS1 861.18 hPa 42.51% 22.19°C
2026-09-05 23:28:44 ah03 0.86% 6.1% 78% 4148194 3.98 V
2026-09-05 23:28:43 ah03 0.86% 6.1% 78% 4148194 3.98 V
2026-09-05 23:28:39 ah03 0.86% 6.1% 78% 4148194 3.98 V
2026-09-05 23:28:38 ah03 0.86% 6.1% 78% 4148194 3.98 V
2026-09-05 23:27:48 7274 0.62% 1.1% 100% 2657267 4.11 V
2026-09-05 23:27:48 7274 0.62% 1.1% 100% 2657267 4.11 V
2026-09-05 23:26:48 DOS 1.26% 0.0% 101% 476564 4.2 V
2026-09-05 23:26:47 DOS 1.26% 0.0% 101% 476564 4.2 V
2026-09-05 23:26:41 DOS 1.26% 0.0% 101% 476564 4.2 V
2026-09-05 23:26:41 DOS 1.26% 0.0% 101% 476564 4.2 V
2026-09-05 23:26:33 TG08 0.05% 0.0% 9% 773 3.64 V
2026-09-05 23:25:40 EEPa 852.85 hPa 60.28% 18.4°C
2026-09-05 23:25:39 EEPa 852.85 hPa 60.28% 18.4°C
2026-09-05 23:25:32 WCS1 0.54% 0.0% 101% 82528 1.3 V
2026-09-05 23:25:32 WCS1 0.54% 0.0% 101% 82528 1.3 V
2026-09-05 23:25:01 ah03
2026-09-05 23:25:01 ah03
2026-09-05 23:24:55 ah03
2026-09-05 23:24:55 ah03
2026-09-05 23:24:39 5RC 1022.28 hPa 58.71% 17.98°C
2026-09-05 23:24:38 5RC 1022.28 hPa 58.71% 17.98°C
2026-09-05 23:24:32 WCS1 861.16 hPa 42.53% 22.19°C
2026-09-05 23:24:32 WCS1 861.16 hPa 42.53% 22.19°C
2026-09-05 23:24:29 5RC 0.86% 2.0% 100% 626223 4.19 V
2026-09-05 23:24:29 5RC 0.86% 2.0% 100% 626223 4.19 V
2026-09-05 23:20:50 ah01 0.49% 0.0% 96% 6439961 4.15 V
2026-09-05 23:20:50 ah01 0.49% 0.0% 96% 6439961 4.15 V
2026-09-05 23:20:31 WCS1 0.54% 0.0% 101% 82227 1.3 V
2026-09-05 23:20:31 WCS1 0.54% 0.0% 101% 82227 1.3 V
2026-09-05 23:19:31 WCS1 861.03 hPa 42.53% 22.19°C
2026-09-05 23:19:31 WCS1 861.03 hPa 42.53% 22.19°C
2026-09-05 23:19:17 LRX1 1009.91 hPa 38.87% 22.68°C
2026-09-05 23:19:17 LRX1 1009.91 hPa 38.87% 22.68°C
2026-09-05 23:19:12 LRX1 1009.91 hPa 38.87% 22.68°C
2026-09-05 23:19:11 LRX1 1009.91 hPa 38.87% 22.68°C
2026-09-05 23:19:10 LRX1 0.82% 0.0% 101% 8441843 4.84 V
2026-09-05 23:19:09 LRX1 0.82% 0.0% 101% 8441843 4.84 V
2026-09-05 23:19:08 LRX1 0.82% 0.0% 101% 8441843 4.84 V
2026-09-05 23:18:09 3bb8 1.17% 6.5% 101% 2625959 5.05 V
2026-09-05 23:18:09 3bb8 1.17% 6.5% 101% 2625959 5.05 V
2026-09-05 23:17:57 DJMH 0.35% 0.0% 82% 17268078 4.01 V
2026-09-05 23:17:57 DJMH 0.35% 0.0% 82% 17268078 4.01 V
2026-09-05 23:17:10 LMGB 0.19% 1.2% 101% 60545 -0.0 V
2026-09-05 23:17:10 LMGB 0.19% 1.2% 101% 60545 -0.0 V
2026-09-05 23:15:30 WCS1 0.54% 0.0% 101% 81926 1.3 V
2026-09-05 23:15:30 WCS1 0.54% 0.0% 101% 81926 1.3 V
2026-09-05 23:14:30 WCS1 861.14 hPa 42.53% 22.2°C
2026-09-05 23:14:30 WCS1 861.14 hPa 42.53% 22.2°C
2026-09-05 23:14:20 RLSC 1001.26 hPa 57.12% 17.11°C
2026-09-05 23:14:20 RLSC 1001.26 hPa 57.12% 17.11°C
2026-09-05 23:12:57 IIXF 0.9% 4.4% 97% 1414486 4.15 V
2026-09-05 23:12:56 IIXF 0.9% 4.4% 97% 1414486 4.15 V
2026-09-05 23:12:15 IIXF 856.75 hPa 62.72% 15.5°C 83.79 Ohm
2026-09-05 23:12:15 IIXF 856.75 hPa 62.72% 15.5°C 83.79 Ohm
2026-09-05 23:12:10 htec 2.78% 8.5% 101% 82563 4.22 V
2026-09-05 23:12:10 htec 2.78% 8.5% 101% 82563 4.22 V
2026-09-05 23:11:53 htec 2.78% 8.5% 101% 82563 4.22 V
2026-09-05 23:11:53 htec 2.78% 8.5% 101% 82563 4.22 V
2026-09-05 23:11:36 TG08 21.27°C
2026-09-05 23:11:29 RF01 0.56% 5.0% 101% 1667883 4.28 V
2026-09-05 23:11:28 RF01 0.56% 5.0% 101% 1667883 4.28 V
2026-09-05 23:11:28 RF01 0.56% 5.0% 101% 1667883 4.28 V
2026-09-05 23:10:29 WCS1 0.54% 0.0% 101% 81625 1.3 V
2026-09-05 23:10:29 WCS1 0.54% 0.0% 101% 81625 1.3 V
2026-09-05 23:09:29 WCS1 861.27 hPa 42.53% 22.21°C
2026-09-05 23:09:29 WCS1 861.27 hPa 42.53% 22.21°C
2026-09-05 23:08:35 LML2 0.18% 0.0% 100% 790686 4.15 V
2026-09-05 23:08:35 LML2 0.18% 0.0% 100% 790686 4.15 V
2026-09-05 23:05:30 TTBM 1.69% 1.0% 101% 37640 4.36 V
2026-09-05 23:05:30 TTBM 1.69% 1.0% 101% 37640 4.36 V
2026-09-05 23:05:28 WCS1 0.54% 0.0% 101% 81324 1.3 V
2026-09-05 23:05:28 WCS1 0.54% 0.0% 101% 81324 1.3 V
2026-09-05 23:04:28 WCS1 861.22 hPa 42.53% 22.22°C
2026-09-05 23:04:28 WCS1 861.22 hPa 42.53% 22.22°C
2026-09-05 23:03:41 EEPr 0.45% 1.9% 101% 2550912 4.33 V
2026-09-05 23:03:41 EEPr 0.45% 1.9% 101% 2550912 4.33 V
2026-09-05 23:03:36 RF03 0.1% 1.1% 99% 1437050 4.18 V
2026-09-05 23:03:36 RF03 0.1% 1.1% 99% 1437050 4.18 V
2026-09-05 23:03:33 RF03 0.1% 1.1% 99% 1437050 4.18 V
2026-09-05 23:03:32 RF03 0.1% 1.1% 99% 1437050 4.18 V
2026-09-05 23:03:32 RF03 0.1% 1.1% 99% 1437050 4.18 V
2026-09-05 23:02:22 EN11 0.03% 8.2% 101% 15614 4.12 V
2026-09-05 23:02:22 EN11 0.03% 8.2% 101% 15614 4.12 V
2026-09-05 23:02:21 EN11 0.03% 8.2% 101% 15614 4.12 V
2026-09-05 23:02:21 EN11 0.03% 8.2% 101% 15614 4.12 V
2026-09-05 23:02:10 Mex1 1.27% 0.9% 33% 55148 3.57 V
2026-09-05 23:02:10 Mex1 1.27% 0.9% 33% 55148 3.57 V
2026-09-05 23:01:24 38b6 0.08% 1.1% 101% 815577 4.02 V
2026-09-05 23:01:24 38b6 0.08% 1.1% 101% 815577 4.02 V
2026-09-05 23:00:45 PTRH 0.49% 0.0% 53% 1678788 3.75 V
2026-09-05 23:00:45 PTRH 0.49% 0.0% 53% 1678788 3.75 V
2026-09-05 23:00:27 WCS1 0.54% 0.0% 101% 81023 1.3 V
2026-09-05 23:00:27 WCS1 0.54% 0.0% 101% 81023 1.3 V
2026-09-05 22:59:54 ah01 0.5% 3.7% 96% 6438700 4.15 V
2026-09-05 22:59:54 ah01 0.5% 3.7% 96% 6438700 4.15 V
2026-09-05 22:59:49 ah01 0.5% 3.7% 96% 6438700 4.15 V
2026-09-05 22:59:48 ah01 0.5% 3.7% 96% 6438700 4.15 V
2026-09-05 22:59:40 ah03 696.34 hPa 63.42% 27.0°C
2026-09-05 22:59:40 ah03 696.34 hPa 63.42% 27.0°C
2026-09-05 22:59:27 WCS1 861.04 hPa 42.52% 22.22°C
2026-09-05 22:59:27 WCS1 861.04 hPa 42.52% 22.22°C
2026-09-05 22:58:32 ah03 0.86% 3.9% 79% 4146379 3.98 V
2026-09-05 22:58:32 ah03 0.86% 3.9% 79% 4146379 3.98 V
2026-09-05 22:58:28 ah03 0.86% 3.9% 79% 4146379 3.98 V
2026-09-05 22:58:27 ah03 0.86% 3.9% 79% 4146379 3.98 V
2026-09-05 22:58:15 LRX1 1009.94 hPa 38.96% 22.68°C
2026-09-05 22:58:14 LRX1 1009.94 hPa 38.96% 22.68°C
2026-09-05 22:58:14 LRX1 1009.94 hPa 38.96% 22.68°C
2026-09-05 22:58:11 LRX1 0.85% 0.0% 101% 8440583 4.83 V
2026-09-05 22:58:10 LRX1 0.85% 0.0% 101% 8440583 4.83 V
2026-09-05 22:58:06 LRX1 0.85% 0.0% 101% 8440583 4.83 V
2026-09-05 22:58:06 LRX1 0.85% 0.0% 101% 8440583 4.83 V
2026-09-05 22:56:03 TG08 0.56% 2.5% 10% 127029 3.65 V
2026-09-05 22:55:26 WCS1 0.54% 0.0% 101% 80722 1.3 V
2026-09-05 22:55:26 WCS1 0.54% 0.0% 101% 80722 1.3 V
2026-09-05 22:54:57 IIXF 0.9% 2.8% 101% 1413406 4.22 V
2026-09-05 22:54:56 IIXF 0.9% 2.8% 101% 1413406 4.22 V
2026-09-05 22:54:39 5RC 1022.33 hPa 58.21% 18.3°C
2026-09-05 22:54:39 5RC 1022.33 hPa 58.21% 18.3°C
2026-09-05 22:54:33 5RC 0.92% 8.1% 96% 624422 4.15 V
2026-09-05 22:54:33 5RC 0.92% 8.1% 96% 624422 4.15 V
2026-09-05 22:54:28 5RC 0.92% 8.1% 96% 624422 4.15 V
2026-09-05 22:54:28 5RC 0.92% 8.1% 96% 624422 4.15 V
2026-09-05 22:54:26 WCS1 861.01 hPa 42.55% 22.22°C
2026-09-05 22:54:26 WCS1 861.01 hPa 42.55% 22.22°C
2026-09-05 22:54:21 PMT2 0.44% 0.0% 101% 87578 4.2 V
2026-09-05 22:54:19 PMT2 0.44% 0.0% 101% 87578 4.2 V
2026-09-05 22:54:19 PMT2 0.44% 0.0% 101% 87578 4.2 V
2026-09-05 22:54:15 IIXF 856.7 hPa 63.94% 14.92°C 35.39 Ohm
2026-09-05 22:54:15 IIXF 856.7 hPa 63.94% 14.92°C 35.39 Ohm
2026-09-05 22:53:59 ah03
2026-09-05 22:53:58 ah03
2026-09-05 22:53:54 ah03
2026-09-05 22:53:54 ah03
2026-09-05 22:53:12 Rhee 0.89% 4.9% 93% 292080 3.99 V
2026-09-05 22:53:12 Rhee 0.89% 4.9% 93% 292080 3.99 V
2026-09-05 22:51:59 dc64 0.37% 2.8% 61% 1557734 3.81 V
2026-09-05 22:51:59 dc64 0.37% 2.8% 61% 1557734 3.81 V
2026-09-05 22:51:59 dc64 0.37% 2.8% 61% 1557734 3.81 V
2026-09-05 22:51:48 7274 0.59% 0.5% 100% 2655107 4.11 V
2026-09-05 22:51:48 7274 0.59% 0.5% 100% 2655107 4.11 V
2026-09-05 22:50:25 WCS1 0.54% 0.0% 101% 80421 1.3 V
2026-09-05 22:50:25 WCS1 0.54% 0.0% 101% 80421 1.3 V
2026-09-05 22:49:25 WCS1 861.03 hPa 42.52% 22.24°C
2026-09-05 22:49:25 WCS1 861.03 hPa 42.52% 22.24°C
2026-09-05 22:45:24 WCS1 0.54% 0.0% 101% 80120 1.3 V
2026-09-05 22:45:24 WCS1 0.54% 0.0% 101% 80120 1.3 V
2026-09-05 22:44:56 DOS 1.22% 2.3% 100% 474044 4.19 V
2026-09-05 22:44:56 DOS 1.22% 2.3% 100% 474044 4.19 V
2026-09-05 22:44:40 DOS 1.22% 2.3% 100% 474044 4.19 V
2026-09-05 22:44:40 DOS 1.22% 2.3% 100% 474044 4.19 V
2026-09-05 22:44:24 WCS1 861.07 hPa 42.54% 22.24°C
2026-09-05 22:44:24 WCS1 861.07 hPa 42.54% 22.24°C
2026-09-05 22:43:31 EEPa 853.05 hPa 59.05% 18.47°C
2026-09-05 22:43:31 EEPa 853.05 hPa 59.05% 18.47°C
2026-09-05 22:42:42 ah02 73.95% 15.8°C
2026-09-05 22:42:40 ah02 73.95% 15.8°C
2026-09-05 22:42:40 ah02 73.95% 15.8°C
2026-09-05 22:42:17 ah02 0.04% 15.8% 68% 60 3.88 V
2026-09-05 22:42:17 ah02 0.04% 15.8% 68% 60 3.88 V
2026-09-05 22:42:12 ah02 0.04% 15.8% 68% 60 3.88 V
2026-09-05 22:42:12 ah02 0.04% 15.8% 68% 60 3.88 V
2026-09-05 22:41:48 ah01 0.45% 2.0% 96% 6437619 4.15 V
2026-09-05 22:41:48 ah01 0.45% 2.0% 96% 6437619 4.15 V
2026-09-05 22:41:35 TG08 20.48°C
2026-09-05 22:41:10 LMGB 0.18% 0.5% 101% 58385 -0.0 V
2026-09-05 22:41:10 LMGB 0.18% 0.5% 101% 58385 -0.0 V
2026-09-05 22:40:23 WCS1 0.54% 0.0% 101% 79819 1.3 V
2026-09-05 22:40:23 WCS1 0.54% 0.0% 101% 79819 1.3 V
2026-09-05 22:39:23 WCS1 861.07 hPa 42.54% 22.22°C
2026-09-05 22:39:23 WCS1 861.07 hPa 42.54% 22.22°C
2026-09-05 22:36:57 IIXF 0.88% 5.5% 94% 1412326 4.11 V
2026-09-05 22:36:56 IIXF 0.88% 5.5% 94% 1412326 4.11 V
2026-09-05 22:36:22 2c98 0.04% 0.0% 101% 151311 4.26 V
2026-09-05 22:36:22 2c98 0.04% 0.0% 101% 151311 4.26 V
2026-09-05 22:36:15 IIXF 856.4 hPa 61.29% 15.77°C 123.62 Ohm
2026-09-05 22:36:15 IIXF 856.4 hPa 61.29% 15.77°C 123.62 Ohm
2026-09-05 22:36:09 3bb8 1.14% 8.1% 101% 2623439 5.06 V
2026-09-05 22:36:09 3bb8 1.14% 8.1% 101% 2623439 5.06 V
2026-09-05 22:35:22 WCS1 0.54% 0.0% 101% 79518 1.3 V
2026-09-05 22:35:22 WCS1 0.54% 0.0% 101% 79518 1.3 V
2026-09-05 22:34:22 WCS1 861.08 hPa 42.54% 22.23°C
2026-09-05 22:34:22 WCS1 861.08 hPa 42.54% 22.23°C
2026-09-05 22:34:16 LRX1 1010.09 hPa 39.02% 22.69°C
2026-09-05 22:34:16 LRX1 1010.09 hPa 39.02% 22.69°C
2026-09-05 22:34:11 LRX1 0.95% 2.1% 101% 8439143 4.84 V
2026-09-05 22:34:11 LRX1 1010.09 hPa 39.02% 22.69°C
2026-09-05 22:34:10 LRX1 1010.09 hPa 39.02% 22.69°C
2026-09-05 22:34:06 LRX1 0.95% 2.1% 101% 8439143 4.84 V
2026-09-05 22:34:06 LRX1 0.95% 2.1% 101% 8439143 4.84 V
2026-09-05 22:33:38 RF03 0.04% 0.0% 99% 1435249 4.19 V
2026-09-05 22:33:37 RF03 0.04% 0.0% 99% 1435249 4.19 V
2026-09-05 22:33:35 EEPr 0.35% 5.8% 101% 2549106 4.34 V
2026-09-05 22:33:34 EEPr 0.35% 5.8% 101% 2549106 4.34 V
2026-09-05 22:33:32 RF03 0.04% 0.0% 99% 1435249 4.19 V
2026-09-05 22:33:31 RF03 0.04% 0.0% 99% 1435249 4.19 V
2026-09-05 22:33:31 RF03 0.04% 0.0% 99% 1435249 4.19 V
2026-09-05 22:32:35 LML2 0.17% 0.0% 100% 788525 4.15 V
2026-09-05 22:32:34 LML2 0.17% 0.0% 100% 788525 4.15 V
2026-09-05 22:32:12 Rhee 0.89% 1.1% 94% 290819 4.01 V
2026-09-05 22:32:12 Rhee 0.89% 1.1% 94% 290819 4.01 V
2026-09-05 22:31:30 TTBM 1.51% 1.1% 101% 35600 4.35 V
2026-09-05 22:31:30 TTBM 1.51% 1.1% 101% 35600 4.35 V
2026-09-05 22:30:21 WCS1 0.54% 0.0% 101% 79217 1.3 V
2026-09-05 22:30:20 WCS1 0.54% 0.0% 101% 79217 1.3 V
2026-09-05 22:29:28 RF01 0.83% 2.8% 101% 1665362 4.24 V
2026-09-05 22:29:28 RF01 0.83% 2.8% 101% 1665362 4.24 V
2026-09-05 22:29:28 RF01 0.83% 2.8% 101% 1665362 4.24 V
2026-09-05 22:29:21 WCS1 861.11 hPa 42.57% 22.25°C
2026-09-05 22:29:20 WCS1 861.11 hPa 42.57% 22.25°C
2026-09-05 22:28:32 ah03 696.34 hPa 63.23% 27.0°C
2026-09-05 22:28:31 ah03 696.34 hPa 63.23% 27.0°C
2026-09-05 22:26:02 TG08 0.45% 0.0% 11% 125228 3.65 V
2026-09-05 22:25:52 htec 2.71% 3.1% 101% 79793 4.21 V
2026-09-05 22:25:51 htec 2.71% 3.1% 101% 79793 4.21 V
2026-09-05 22:25:44 htec 2.71% 3.1% 101% 79793 4.21 V
2026-09-05 22:25:43 htec 2.71% 3.1% 101% 79793 4.21 V
2026-09-05 22:25:20 WCS1 0.54% 0.0% 101% 78916 1.3 V
2026-09-05 22:25:19 WCS1 0.54% 0.0% 101% 78916 1.3 V
2026-09-05 22:24:45 PTRH 0.48% 0.0% 56% 1676628 3.77 V
2026-09-05 22:24:45 PTRH 0.48% 0.0% 56% 1676628 3.77 V
2026-09-05 22:24:20 WCS1 861.16 hPa 42.54% 22.23°C
2026-09-05 22:24:19 WCS1 861.16 hPa 42.54% 22.23°C
2026-09-05 22:23:53 ah01 0.39% 1.8% 96% 6436538 4.15 V
2026-09-05 22:23:52 ah01 0.39% 1.8% 96% 6436538 4.15 V
2026-09-05 22:23:47 ah01 0.39% 1.8% 96% 6436538 4.15 V
2026-09-05 22:23:47 ah01 0.39% 1.8% 96% 6436538 4.15 V
2026-09-05 22:23:37 ah03
2026-09-05 22:23:37 ah03
2026-09-05 22:23:33 ah03
2026-09-05 22:23:32 ah03
2026-09-05 22:21:27 EEPa 0.17% 0.0% 100% 7075566 4.13 V
2026-09-05 22:21:27 EEPa 0.17% 0.0% 100% 7075566 4.13 V
2026-09-05 22:20:19 WCS1 0.54% 0.0% 101% 78615 1.3 V
2026-09-05 22:20:18 WCS1 0.54% 0.0% 101% 78615 1.3 V
2026-09-05 22:19:51 5RC 1022.81 hPa 57.66% 18.12°C
2026-09-05 22:19:51 5RC 1022.81 hPa 57.66% 18.12°C
2026-09-05 22:19:40 5RC 1022.81 hPa 57.66% 18.12°C
2026-09-05 22:19:19 WCS1 861.04 hPa 42.56% 22.24°C
2026-09-05 22:19:18 WCS1 861.04 hPa 42.56% 22.24°C
2026-09-05 22:18:57 IIXF 0.9% 5.0% 96% 1411246 4.14 V
2026-09-05 22:18:56 IIXF 0.9% 5.0% 96% 1411246 4.14 V
2026-09-05 22:18:45 BB04 1.42% 6.7% 101% 1126884 -0.0 V
2026-09-05 22:18:45 BB04 1.42% 6.7% 101% 1126884 -0.0 V
2026-09-05 22:18:15 IIXF 856.4 hPa 61.29% 15.77°C 123.62 Ohm
2026-09-05 22:18:15 IIXF 856.4 hPa 61.29% 15.77°C 123.62 Ohm
2026-09-05 22:17:50 DJMH 0.23% 0.0% 83% 17264478 4.01 V
2026-09-05 22:17:50 DJMH 0.23% 0.0% 83% 17264478 4.01 V
2026-09-05 22:15:47 7274 0.6% 1.1% 100% 2652947 4.11 V
2026-09-05 22:15:47 7274 0.6% 1.1% 100% 2652947 4.11 V
2026-09-05 22:15:18 WCS1 0.54% 0.0% 101% 78314 1.3 V
2026-09-05 22:15:17 WCS1 0.54% 0.0% 101% 78314 1.3 V
2026-09-05 22:14:18 WCS1 861.12 hPa 42.57% 22.24°C
2026-09-05 22:14:17 WCS1 861.12 hPa 42.57% 22.24°C
2026-09-05 22:14:16 Mex1 1.29% 1.9% 44% 52268 3.67 V
2026-09-05 22:14:16 Mex1 1.29% 1.9% 44% 52268 3.67 V
2026-09-05 22:14:09 Mex1 1.29% 1.9% 44% 52268 3.67 V
2026-09-05 22:14:09 Mex1 1.29% 1.9% 44% 52268 3.67 V
2026-09-05 22:13:24 LRX1 1009.47 hPa 38.8% 22.71°C
2026-09-05 22:13:24 LRX1 1009.47 hPa 38.8% 22.71°C
2026-09-05 22:13:21 LRX1 1009.47 hPa 38.8% 22.71°C
2026-09-05 22:13:20 LRX1 1009.47 hPa 38.8% 22.71°C
2026-09-05 22:13:10 LRX1 0.97% 0.0% 101% 8437882 4.84 V
2026-09-05 22:13:10 LRX1 0.97% 0.0% 101% 8437882 4.84 V
2026-09-05 22:13:06 LRX1 0.97% 0.0% 101% 8437882 4.84 V
2026-09-05 22:13:06 LRX1 0.97% 0.0% 101% 8437882 4.84 V
2026-09-05 22:11:33 TG08 21.34°C
2026-09-05 22:11:22 Jim1 0.69% 5.7% 94% 17619403 4.12 V
2026-09-05 22:11:20 Jim1 0.69% 5.7% 94% 17619403 4.12 V
2026-09-05 22:11:20 Jim1 0.69% 5.7% 94% 17619403 4.12 V
2026-09-05 22:11:11 Rhee 0.87% 4.7% 94% 289559 4.02 V
2026-09-05 22:11:11 Rhee 0.87% 4.7% 94% 289559 4.02 V
2026-09-05 22:10:35 5RC 0.93% 0.0% 93% 621781 4.09 V
2026-09-05 22:10:35 5RC 0.93% 0.0% 93% 621781 4.09 V
2026-09-05 22:10:17 WCS1 0.54% 0.0% 101% 78013 1.3 V
2026-09-05 22:10:16 WCS1 0.54% 0.0% 101% 78013 1.3 V
2026-09-05 22:09:48 tge0 2.56% 0.0% 95% 10085107 4.12 V
2026-09-05 22:09:46 tge0 2.56% 0.0% 95% 10085107 4.12 V
2026-09-05 22:09:46 tge0 2.56% 0.0% 95% 10085107 4.12 V
2026-09-05 22:09:17 WCS1 861.11 hPa 42.54% 22.23°C
2026-09-05 22:09:16 WCS1 861.11 hPa 42.54% 22.23°C
2026-09-05 22:07:24 EEPa 853.18 hPa 59.28% 18.52°C
2026-09-05 22:07:24 EEPa 853.18 hPa 59.28% 18.52°C
2026-09-05 22:05:52 ah01 0.37% 1.8% 96% 6435457 4.14 V
2026-09-05 22:05:51 ah01 0.37% 1.8% 96% 6435457 4.14 V
2026-09-05 22:05:46 ah01 0.37% 1.8% 96% 6435457 4.14 V
2026-09-05 22:05:46 ah01 0.37% 1.8% 96% 6435457 4.14 V
2026-09-05 22:05:16 WCS1 0.54% 0.0% 101% 77712 1.3 V
2026-09-05 22:05:15 WCS1 0.54% 0.0% 101% 77712 1.3 V
2026-09-05 22:05:10 LMGB 0.18% 0.0% 101% 56225 -0.0 V
2026-09-05 22:05:09 LMGB 0.18% 0.0% 101% 56225 -0.0 V
2026-09-05 22:04:16 WCS1 861.03 hPa 42.56% 22.24°C
2026-09-05 22:04:15 WCS1 861.03 hPa 42.56% 22.24°C
2026-09-05 22:03:31 RF03 0.05% 4.3% 99% 1433449 4.19 V
2026-09-05 22:03:31 RF03 0.05% 4.3% 99% 1433449 4.19 V
2026-09-05 22:03:31 RF03 0.05% 4.3% 99% 1433449 4.19 V
2026-09-05 22:03:29 EEPr 0.17% 1.1% 101% 2547299 4.33 V
2026-09-05 22:03:28 EEPr 0.17% 1.1% 101% 2547299 4.33 V
2026-09-05 22:02:51 DOS 1.3% 1.0% 101% 471523 4.22 V
2026-09-05 22:02:51 DOS 1.3% 1.0% 101% 471523 4.22 V
2026-09-05 22:02:43 DOS 1.3% 1.0% 101% 471523 4.22 V
2026-09-05 22:02:42 DOS 1.3% 1.0% 101% 471523 4.22 V
2026-09-05 22:01:30 TTBM 1.36% 0.0% 101% 33800 4.35 V
2026-09-05 22:01:30 TTBM 1.36% 0.0% 101% 33800 4.35 V
2026-09-05 22:00:56 IIXF 0.87% 4.4% 99% 1410166 4.18 V
2026-09-05 22:00:56 IIXF 0.87% 4.4% 99% 1410166 4.18 V
2026-09-05 22:00:15 IIXF 856.4 hPa 61.29% 15.77°C 123.62 Ohm
2026-09-05 22:00:15 IIXF 856.4 hPa 61.29% 15.77°C 123.62 Ohm
2026-09-05 22:00:15 WCS1 0.54% 0.0% 101% 77411 1.3 V
2026-09-05 22:00:14 WCS1 0.54% 0.0% 101% 77411 1.3 V
2026-09-05 21:59:15 WCS1 861.04 hPa 42.54% 22.24°C
2026-09-05 21:59:14 WCS1 861.04 hPa 42.54% 22.24°C
2026-09-05 21:58:35 ah03 696.34 hPa 64.81% 27.0°C
2026-09-05 21:58:34 ah03 696.34 hPa 64.81% 27.0°C
2026-09-05 21:58:33 ah03 696.34 hPa 64.81% 27.0°C
2026-09-05 21:58:20 ah03 0.85% 3.9% 79% 4142764 3.98 V
2026-09-05 21:58:20 ah03 0.85% 3.9% 79% 4142764 3.98 V
2026-09-05 21:56:34 LML2 0.17% 0.0% 100% 786365 4.15 V
2026-09-05 21:56:34 LML2 0.17% 0.0% 100% 786365 4.15 V
2026-09-05 21:56:00 TG08 0.52% 0.0% 14% 123426 3.67 V
2026-09-05 21:55:14 WCS1 0.54% 0.0% 101% 77110 1.3 V
2026-09-05 21:55:13 WCS1 0.54% 0.0% 101% 77110 1.3 V
2026-09-05 21:54:14 WCS1 861.06 hPa 42.55% 22.25°C
2026-09-05 21:54:13 WCS1 861.06 hPa 42.55% 22.25°C
2026-09-05 21:54:09 3bb8 1.25% 6.5% 101% 2620919 5.04 V
2026-09-05 21:54:09 3bb8 1.25% 6.5% 101% 2620919 5.04 V
2026-09-05 21:53:21 ah03
2026-09-05 21:53:20 ah03
2026-09-05 21:52:15 LRX1 1009.79 hPa 39.17% 22.66°C
2026-09-05 21:52:15 LRX1 1009.79 hPa 39.17% 22.66°C
2026-09-05 21:52:11 LRX1 0.97% 0.0% 101% 8436622 4.84 V
2026-09-05 21:52:10 LRX1 1009.79 hPa 39.17% 22.66°C
2026-09-05 21:52:10 LRX1 0.97% 0.0% 101% 8436622 4.84 V
2026-09-05 21:52:06 LRX1 0.97% 0.0% 101% 8436622 4.84 V
2026-09-05 21:52:05 LRX1 0.97% 0.0% 101% 8436622 4.84 V
2026-09-05 21:50:13 WCS1 0.54% 0.0% 101% 76809 1.3 V
2026-09-05 21:50:12 Rhee 0.92% 0.0% 94% 288299 4.02 V
2026-09-05 21:50:12 WCS1 0.54% 0.0% 101% 76809 1.3 V
2026-09-05 21:50:12 Rhee 0.92% 0.0% 94% 288299 4.02 V
2026-09-05 21:49:13 WCS1 861.14 hPa 42.54% 22.26°C
2026-09-05 21:49:12 WCS1 861.14 hPa 42.54% 22.26°C
2026-09-05 21:47:45 ah01 0.31% 0.0% 97% 6434376 4.15 V
2026-09-05 21:47:45 ah01 0.31% 0.0% 97% 6434376 4.15 V
2026-09-05 21:45:11 WCS1 0.54% 0.0% 101% 76508 1.3 V
2026-09-05 21:45:11 WCS1 0.54% 0.0% 101% 76508 1.3 V
2026-09-05 21:44:11 WCS1 861.26 hPa 42.52% 22.27°C
2026-09-05 21:44:11 WCS1 861.26 hPa 42.52% 22.27°C
2026-09-05 21:43:24 EN06 0.46% 5.5% 55% 365828 3.77 V
2026-09-05 21:43:24 EN06 0.46% 5.5% 55% 365828 3.77 V
2026-09-05 21:43:23 EN06 0.46% 5.5% 55% 365828 3.77 V
2026-09-05 21:43:18 EN06 0.46% 5.5% 55% 365828 3.77 V
2026-09-05 21:42:56 IIXF 0.88% 3.3% 87% 1409085 4.04 V
2026-09-05 21:42:56 IIXF 0.88% 3.3% 87% 1409085 4.04 V
2026-09-05 21:42:45 PTRH 0.42% 1.8% 54% 1674108 3.76 V
2026-09-05 21:42:44 PTRH 0.42% 1.8% 54% 1674108 3.76 V
2026-09-05 21:42:15 IIXF 856.4 hPa 61.29% 15.77°C 123.62 Ohm
2026-09-05 21:42:15 IIXF 856.4 hPa 61.29% 15.77°C 123.62 Ohm
2026-09-05 21:41:42 RF01 0.72% 0.9% 101% 1662482 4.21 V
2026-09-05 21:41:42 RF01 0.72% 0.9% 101% 1662482 4.21 V
2026-09-05 21:41:38 htec 2.65% 4.9% 101% 77148 4.24 V
2026-09-05 21:41:38 htec 2.65% 4.9% 101% 77148 4.24 V
2026-09-05 21:41:32 TG08 21.84°C
2026-09-05 21:41:28 RF01 0.72% 0.9% 101% 1662482 4.21 V
2026-09-05 21:41:28 RF01 0.72% 0.9% 101% 1662482 4.21 V
2026-09-05 21:41:28 RF01 0.72% 0.9% 101% 1662482 4.21 V
2026-09-05 21:40:16 ah02 70.31% 15.99°C
2026-09-05 21:40:16 ah02 70.31% 15.99°C
2026-09-05 21:40:10 ah02 70.31% 15.99°C
2026-09-05 21:40:10 WCS1 0.54% 0.0% 101% 76207 1.3 V
2026-09-05 21:40:10 WCS1 0.54% 0.0% 101% 76207 1.3 V
2026-09-05 21:40:09 ah02 70.31% 15.99°C
2026-09-05 21:39:49 ah02 0.04% 10.9% 68% 61 3.87 V
2026-09-05 21:39:49 ah02 0.04% 10.9% 68% 61 3.87 V
2026-09-05 21:39:47 7274 0.64% 1.6% 100% 2650786 4.11 V
2026-09-05 21:39:46 7274 0.64% 1.6% 100% 2650786 4.11 V
2026-09-05 21:39:45 ah02 0.04% 10.9% 68% 61 3.87 V
2026-09-05 21:39:44 ah02 0.04% 10.9% 68% 61 3.87 V
2026-09-05 21:39:38 5RC 1022.76 hPa 56.35% 18.43°C
2026-09-05 21:39:38 5RC 1022.76 hPa 56.35% 18.43°C
2026-09-05 21:39:10 WCS1 861.33 hPa 42.54% 22.28°C
2026-09-05 21:39:10 WCS1 861.33 hPa 42.54% 22.28°C
2026-09-05 21:36:23 BB04 1.49% 2.0% 101% 1124337 -0.0 V
2026-09-05 21:36:23 BB04 1.49% 2.0% 101% 1124337 -0.0 V
2026-09-05 21:36:22 2c98 0.08% 0.0% 101% 147710 4.43 V
2026-09-05 21:36:21 2c98 0.08% 0.0% 101% 147710 4.43 V
2026-09-05 21:36:19 BB04 1.49% 2.0% 101% 1124337 -0.0 V
2026-09-05 21:36:18 BB04 1.49% 2.0% 101% 1124337 -0.0 V
2026-09-05 21:35:09 WCS1 0.54% 0.0% 101% 75906 1.3 V
2026-09-05 21:35:09 WCS1 0.54% 0.0% 101% 75906 1.3 V
2026-09-05 21:34:09 WCS1 861.37 hPa 42.52% 22.28°C
2026-09-05 21:34:09 WCS1 861.37 hPa 42.52% 22.28°C
2026-09-05 21:33:30 RF03 0.07% 1.7% 99% 1431648 4.19 V
2026-09-05 21:33:30 RF03 0.07% 1.7% 99% 1431648 4.19 V
2026-09-05 21:33:30 RF03 0.07% 1.7% 99% 1431648 4.19 V
2026-09-05 21:33:22 EEPr 0.16% 0.0% 101% 2545493 4.33 V
2026-09-05 21:33:22 EEPr 0.16% 0.0% 101% 2545493 4.33 V
2026-09-05 21:32:39 5RC 2.09% 6.4% 96% 619500 4.15 V
2026-09-05 21:32:28 5RC 2.09% 6.4% 96% 619500 4.15 V
2026-09-05 21:32:28 5RC 2.09% 6.4% 96% 619500 4.15 V
2026-09-05 21:31:30 TTBM 1.43% 2.9% 101% 32000 4.36 V
2026-09-05 21:31:30 TTBM 1.43% 2.9% 101% 32000 4.36 V
2026-09-05 21:31:21 LRX1 1009.51 hPa 39.5% 22.62°C
2026-09-05 21:31:20 LRX1 1009.51 hPa 39.5% 22.62°C
2026-09-05 21:31:17 EEPa 853.12 hPa 59.51% 18.58°C
2026-09-05 21:31:17 EEPa 853.12 hPa 59.51% 18.58°C
2026-09-05 21:31:13 LRX1 0.94% 0.0% 101% 8435362 4.85 V
2026-09-05 21:31:13 LRX1 0.94% 0.0% 101% 8435362 4.85 V
2026-09-05 21:31:11 LRX1 1009.51 hPa 39.5% 22.62°C
2026-09-05 21:31:10 LRX1 0.94% 0.0% 101% 8435362 4.85 V
2026-09-05 21:31:10 LRX1 0.94% 0.0% 101% 8435362 4.85 V
2026-09-05 21:30:08 WCS1 0.54% 0.0% 101% 75605 1.3 V
2026-09-05 21:30:08 WCS1 0.54% 0.0% 101% 75605 1.3 V
2026-09-05 21:29:44 ah01 0.31% 0.0% 97% 6433295 4.15 V
2026-09-05 21:29:44 ah01 0.31% 0.0% 97% 6433295 4.15 V
2026-09-05 21:29:10 Rhee 0.91% 2.5% 94% 287039 4.03 V
2026-09-05 21:29:10 Rhee 0.91% 2.5% 94% 287039 4.03 V
2026-09-05 21:29:09 LMGB 0.19% 1.4% 101% 54065 -0.0 V
2026-09-05 21:29:09 LMGB 0.19% 1.4% 101% 54065 -0.0 V
2026-09-05 21:29:08 WCS1 861.37 hPa 42.51% 22.28°C
2026-09-05 21:29:08 WCS1 861.37 hPa 42.51% 22.28°C
2026-09-05 21:28:08 dc64 0.27% 0.0% 62% 1552694 3.82 V
2026-09-05 21:28:07 dc64 0.27% 0.0% 62% 1552694 3.82 V
2026-09-05 21:27:32 ah03 696.34 hPa 65.78% 27.0°C
2026-09-05 21:27:30 ah03 0.85% 3.9% 80% 4140914 3.99 V
2026-09-05 21:27:30 ah03 0.85% 3.9% 80% 4140914 3.99 V
2026-09-05 21:25:59 TG08 0.87% 0.0% 15% 121625 3.67 V
2026-09-05 21:25:07 WCS1 0.54% 0.0% 101% 75304 1.3 V
2026-09-05 21:25:07 WCS1 0.54% 0.0% 101% 75304 1.3 V
2026-09-05 21:24:57 IIXF 0.85% 2.2% 72% 1408005 3.91 V
2026-09-05 21:24:56 IIXF 0.85% 2.2% 72% 1408005 3.91 V
2026-09-05 21:24:15 IIXF 856.4 hPa 61.29% 15.77°C 123.62 Ohm
2026-09-05 21:24:15 IIXF 856.4 hPa 61.29% 15.77°C 123.62 Ohm
2026-09-05 21:24:07 WCS1 861.42 hPa 42.49% 22.28°C
2026-09-05 21:24:07 WCS1 861.42 hPa 42.49% 22.28°C
2026-09-05 21:23:21 Jim1 0.71% 0.0% 94% 17616522 4.12 V
2026-09-05 21:23:20 Jim1 0.71% 0.0% 94% 17616522 4.12 V
2026-09-05 21:23:20 Jim1 0.71% 0.0% 94% 17616522 4.12 V
2026-09-05 21:22:51 ah03
2026-09-05 21:22:51 ah03
2026-09-05 21:20:51 DOS 1.41% 0.0% 101% 469003 4.21 V
2026-09-05 21:20:50 DOS 1.41% 0.0% 101% 469003 4.21 V
2026-09-05 21:20:40 DOS 1.41% 0.0% 101% 469003 4.21 V
2026-09-05 21:20:40 DOS 1.41% 0.0% 101% 469003 4.21 V
2026-09-05 21:20:34 LML2 0.16% 0.0% 100% 784205 4.15 V
2026-09-05 21:20:34 LML2 0.16% 0.0% 100% 784205 4.15 V
2026-09-05 21:20:06 WCS1 0.54% 0.0% 101% 75003 1.3 V
2026-09-05 21:20:06 WCS1 0.54% 0.0% 101% 75003 1.3 V
2026-09-05 21:19:06 WCS1 861.37 hPa 42.5% 22.29°C
2026-09-05 21:19:06 WCS1 861.37 hPa 42.5% 22.29°C
2026-09-05 21:15:05 WCS1 0.54% 0.0% 101% 74702 1.3 V
2026-09-05 21:15:05 WCS1 0.54% 0.0% 101% 74702 1.3 V
2026-09-05 21:14:05 WCS1 861.21 hPa 42.46% 22.3°C
2026-09-05 21:14:05 WCS1 861.21 hPa 42.46% 22.3°C
2026-09-05 21:12:09 3bb8 1.19% 11.5% 101% 2618399 5.06 V
2026-09-05 21:12:09 3bb8 1.19% 11.5% 101% 2618399 5.06 V
2026-09-05 21:11:43 ah01 0.29% 0.0% 96% 6432214 4.15 V
2026-09-05 21:11:43 ah01 0.29% 0.0% 96% 6432214 4.15 V
2026-09-05 21:11:31 TG08 20.48°C
2026-09-05 21:10:17 LRX1 1009.3 hPa 38.76% 22.61°C
2026-09-05 21:10:16 LRX1 1009.3 hPa 38.76% 22.61°C
2026-09-05 21:10:10 LRX1 0.86% 2.3% 101% 8434102 4.84 V
2026-09-05 21:10:10 LRX1 0.86% 2.3% 101% 8434102 4.84 V
2026-09-05 21:10:10 LRX1 1009.3 hPa 38.76% 22.61°C
2026-09-05 21:10:05 LRX1 0.86% 2.3% 101% 8434102 4.84 V
2026-09-05 21:10:05 LRX1 0.86% 2.3% 101% 8434102 4.84 V
2026-09-05 21:10:04 WCS1 0.54% 0.0% 101% 74401 1.3 V
2026-09-05 21:10:04 WCS1 0.54% 0.0% 101% 74401 1.3 V
2026-09-05 21:09:37 5RC 1022.84 hPa 55.44% 18.66°C
2026-09-05 21:09:36 5RC 1022.84 hPa 55.44% 18.66°C
2026-09-05 21:09:04 WCS1 861.17 hPa 42.46% 22.3°C
2026-09-05 21:09:04 WCS1 861.17 hPa 42.46% 22.3°C
2026-09-05 21:08:17 Rhee 0.79% 0.0% 94% 285779 4.03 V
2026-09-05 21:08:16 Rhee 0.79% 0.0% 94% 285779 4.03 V
2026-09-05 21:06:56 IIXF 0.91% 3.9% 94% 1406925 4.12 V
2026-09-05 21:06:56 IIXF 0.91% 3.9% 94% 1406925 4.12 V
2026-09-05 21:06:45 PTRH 0.32% 0.0% 57% 1671947 3.78 V
2026-09-05 21:06:44 PTRH 0.32% 0.0% 57% 1671947 3.78 V
2026-09-05 21:06:15 IIXF 856.4 hPa 61.29% 15.77°C 123.62 Ohm
2026-09-05 21:06:15 IIXF 856.4 hPa 61.29% 15.77°C 123.62 Ohm
2026-09-05 21:05:03 WCS1 0.54% 0.0% 101% 74100 1.3 V
2026-09-05 21:05:03 WCS1 0.54% 0.0% 101% 74100 1.3 V
2026-09-05 21:04:11 MSHU 4.88% 10.0% 100% 318694 4.19 V
2026-09-05 21:04:11 MSHU 4.88% 10.0% 100% 318694 4.19 V
2026-09-05 21:04:03 WCS1 861.27 hPa 42.47% 22.29°C
2026-09-05 21:04:03 WCS1 861.27 hPa 42.47% 22.29°C
2026-09-05 21:03:47 7274 0.65% 2.1% 100% 2648626 4.11 V
2026-09-05 21:03:46 7274 0.65% 2.1% 100% 2648626 4.11 V
2026-09-05 21:03:30 RF03 0.09% 0.0% 99% 1429847 4.19 V
2026-09-05 21:03:29 RF03 0.09% 0.0% 99% 1429847 4.19 V
2026-09-05 21:03:29 RF03 0.09% 0.0% 99% 1429847 4.19 V
2026-09-05 21:03:16 EEPr 0.2% 0.0% 101% 2543687 4.34 V
2026-09-05 21:03:16 EEPr 0.2% 0.0% 101% 2543687 4.34 V
2026-09-05 21:02:19 EN11 0.02% 5.0% 101% 8408 4.13 V
2026-09-05 21:00:26 5RC 2.03% 0.0% 92% 617579 4.08 V
2026-09-05 21:00:25 5RC 2.03% 0.0% 92% 617579 4.08 V
2026-09-05 21:00:02 WCS1 0.54% 0.0% 101% 73798 1.3 V
2026-09-05 21:00:02 WCS1 0.54% 0.0% 101% 73798 1.3 V
2026-09-05 20:59:30 TTBM 1.43% 0.0% 101% 30080 4.36 V
2026-09-05 20:59:30 TTBM 1.43% 0.0% 101% 30080 4.36 V
2026-09-05 20:59:02 WCS1 861.27 hPa 42.5% 22.29°C
2026-09-05 20:59:02 WCS1 861.27 hPa 42.5% 22.29°C
2026-09-05 20:57:22 38b6 0.05% 2.1% 101% 808135 4.02 V
2026-09-05 20:57:22 38b6 0.05% 2.1% 101% 808135 4.02 V
2026-09-05 20:56:53 ah03 696.34 hPa 66.43% 27.0°C
2026-09-05 20:56:53 ah03 696.34 hPa 66.43% 27.0°C
2026-09-05 20:56:48 ah03 696.34 hPa 66.43% 27.0°C
2026-09-05 20:56:45 ah03 0.85% 3.9% 80% 4139059 3.99 V
2026-09-05 20:56:45 ah03 0.85% 3.9% 80% 4139059 3.99 V
2026-09-05 20:56:40 ah03 0.85% 3.9% 80% 4139059 3.99 V
2026-09-05 20:56:39 ah03 0.85% 3.9% 80% 4139059 3.99 V
2026-09-05 20:55:58 TG08 1.03% 2.0% 17% 119824 3.68 V
2026-09-05 20:55:42 htec 2.58% 7.1% 101% 74387 4.27 V
2026-09-05 20:55:42 htec 2.58% 7.1% 101% 74387 4.27 V
2026-09-05 20:55:38 htec 2.58% 7.1% 101% 74387 4.27 V
2026-09-05 20:55:37 htec 2.58% 7.1% 101% 74387 4.27 V
2026-09-05 20:55:09 EEPa 852.99 hPa 59.45% 18.6°C
2026-09-05 20:55:09 EEPa 852.99 hPa 59.45% 18.6°C
2026-09-05 20:55:01 WCS1 0.54% 0.0% 101% 73497 1.3 V
2026-09-05 20:55:01 WCS1 0.54% 0.0% 101% 73497 1.3 V
2026-09-05 20:54:16 BB04 1.37% 7.5% 101% 1121813 -0.0 V
2026-09-05 20:54:16 BB04 1.37% 7.5% 101% 1121813 -0.0 V
2026-09-05 20:54:16 BB04 1.37% 7.5% 101% 1121813 -0.0 V
2026-09-05 20:54:01 WCS1 861.25 hPa 42.47% 22.29°C
2026-09-05 20:54:01 WCS1 861.25 hPa 42.47% 22.29°C
2026-09-05 20:53:46 RF01 0.6% 3.9% 99% 1659602 4.19 V
2026-09-05 20:53:45 RF01 0.6% 3.9% 99% 1659602 4.19 V
2026-09-05 20:53:42 ah01 0.29% 0.0% 96% 6431133 4.15 V
2026-09-05 20:53:42 ah01 0.29% 0.0% 96% 6431133 4.15 V
2026-09-05 20:53:28 RF01 0.6% 3.9% 99% 1659602 4.19 V
2026-09-05 20:53:28 RF01 0.6% 3.9% 99% 1659602 4.19 V
2026-09-05 20:53:27 RF01 0.6% 3.9% 99% 1659602 4.19 V
2026-09-05 20:53:09 LMGB 0.18% 0.0% 101% 51904 -0.0 V
2026-09-05 20:53:09 LMGB 0.18% 0.0% 101% 51904 -0.0 V
2026-09-05 20:51:51 ah03
2026-09-05 20:51:49 ah03
2026-09-05 20:51:49 ah03
2026-09-05 20:50:15 Mex1 1.28% 2.0% 40% 47228 3.63 V
2026-09-05 20:50:15 Mex1 1.28% 2.0% 40% 47228 3.63 V
2026-09-05 20:50:09 Mex1 1.28% 2.0% 40% 47228 3.63 V
2026-09-05 20:50:09 Mex1 1.28% 2.0% 40% 47228 3.63 V
2026-09-05 20:50:00 WCS1 0.54% 0.0% 101% 73196 1.3 V
2026-09-05 20:50:00 WCS1 0.54% 0.0% 101% 73196 1.3 V
2026-09-05 20:49:15 LRX1 1009.18 hPa 39.15% 22.57°C
2026-09-05 20:49:15 LRX1 1009.18 hPa 39.15% 22.57°C
2026-09-05 20:49:11 LRX1 1009.18 hPa 39.15% 22.57°C
2026-09-05 20:49:10 LRX1 1009.18 hPa 39.15% 22.57°C
2026-09-05 20:49:00 WCS1 861.16 hPa 42.49% 22.29°C
2026-09-05 20:49:00 WCS1 861.16 hPa 42.49% 22.29°C
2026-09-05 20:48:56 IIXF 0.96% 3.9% 101% 1405845 4.24 V
2026-09-05 20:48:56 IIXF 0.96% 3.9% 101% 1405845 4.24 V
2026-09-05 20:48:15 IIXF 856.4 hPa 61.29% 15.77°C 123.62 Ohm
2026-09-05 20:48:15 IIXF 856.4 hPa 61.29% 15.77°C 123.62 Ohm
2026-09-05 20:48:11 DJMH 0.3% 0.0% 84% 17259077 4.02 V
2026-09-05 20:48:11 DJMH 0.3% 0.0% 84% 17259077 4.02 V
2026-09-05 20:44:59 WCS1 0.54% 0.0% 101% 72895 1.31 V
2026-09-05 20:44:59 WCS1 0.54% 0.0% 101% 72895 1.31 V
2026-09-05 20:44:34 LML2 0.17% 1.2% 100% 782045 4.15 V
2026-09-05 20:44:34 LML2 0.17% 1.2% 100% 782045 4.15 V
2026-09-05 20:43:59 WCS1 861.18 hPa 42.45% 22.3°C
2026-09-05 20:43:59 WCS1 861.18 hPa 42.45% 22.3°C
2026-09-05 20:43:09 EN06 0.28% 2.1% 58% 362227 3.79 V
2026-09-05 20:43:05 EN06 0.28% 2.1% 58% 362227 3.79 V
2026-09-05 20:41:30 TG08 20.29°C
2026-09-05 20:39:58 WCS1 0.54% 0.0% 101% 72594 1.31 V
2026-09-05 20:39:58 WCS1 0.54% 0.0% 101% 72594 1.31 V
2026-09-05 20:39:42 5RC 1022.68 hPa 54.54% 18.83°C
2026-09-05 20:39:41 5RC 1022.68 hPa 54.54% 18.83°C
2026-09-05 20:39:36 5RC 1022.68 hPa 54.54% 18.83°C
2026-09-05 20:39:36 5RC 1022.68 hPa 54.54% 18.83°C
2026-09-05 20:38:58 WCS1 861.02 hPa 42.43% 22.3°C
2026-09-05 20:38:58 WCS1 861.02 hPa 42.43% 22.3°C
2026-09-05 20:38:52 DOS 1.3% 3.9% 100% 466483 4.2 V
2026-09-05 20:38:52 DOS 1.3% 3.9% 100% 466483 4.2 V
2026-09-05 20:38:39 DOS 1.3% 3.9% 100% 466483 4.2 V
2026-09-05 20:38:39 DOS 1.3% 3.9% 100% 466483 4.2 V
2026-09-05 20:37:48 ah02 67.24% 16.76°C
2026-09-05 20:37:47 tge0 2.4% 9.5% 95% 10079587 4.12 V
2026-09-05 20:37:46 ah02 67.24% 16.76°C
2026-09-05 20:37:46 tge0 2.4% 9.5% 95% 10079587 4.12 V
2026-09-05 20:37:46 ah02 67.24% 16.76°C
2026-09-05 20:37:17 ah02 0.04% 16.9% 68% 60 3.88 V
2026-09-05 20:37:17 ah02 0.04% 16.9% 68% 60 3.88 V
2026-09-05 20:36:20 2c98 0.02% 0.0% 101% 144108 4.28 V
2026-09-05 20:36:20 2c98 0.02% 0.0% 101% 144108 4.28 V
2026-09-05 20:35:42 ah01 0.29% 0.0% 96% 6430052 4.15 V
2026-09-05 20:35:41 ah01 0.29% 0.0% 96% 6430052 4.15 V
2026-09-05 20:35:20 Jim1 0.8% 0.0% 95% 17613642 4.12 V
2026-09-05 20:35:19 Jim1 0.8% 0.0% 95% 17613642 4.12 V
2026-09-05 20:34:57 WCS1 0.54% 0.0% 101% 72293 1.3 V
2026-09-05 20:34:57 WCS1 0.54% 0.0% 101% 72293 1.3 V
2026-09-05 20:33:57 WCS1 861.1 hPa 42.43% 22.32°C
2026-09-05 20:33:57 WCS1 861.1 hPa 42.43% 22.32°C
2026-09-05 20:33:29 RF03 0.14% 6.1% 99% 1428046 4.19 V
2026-09-05 20:33:29 RF03 0.14% 6.1% 99% 1428046 4.19 V
2026-09-05 20:33:29 RF03 0.14% 6.1% 99% 1428046 4.19 V
2026-09-05 20:33:10 EEPr 0.15% 1.1% 101% 2541881 4.34 V
2026-09-05 20:33:09 EEPr 0.15% 1.1% 101% 2541881 4.34 V
2026-09-05 20:33:04 EEPa 0.07% 0.0% 100% 7069064 4.13 V
2026-09-05 20:33:04 EEPa 0.07% 0.0% 100% 7069064 4.13 V
2026-09-05 20:30:56 IIXF 1.02% 7.1% 93% 1404765 4.1 V
2026-09-05 20:30:56 IIXF 1.02% 7.1% 93% 1404765 4.1 V
2026-09-05 20:30:44 PTRH 0.36% 0.0% 54% 1669787 3.75 V
2026-09-05 20:30:44 PTRH 0.36% 0.0% 54% 1669787 3.75 V
2026-09-05 20:30:31 5RC 0.79% 4.5% 96% 615779 4.14 V
2026-09-05 20:30:30 5RC 0.79% 4.5% 96% 615779 4.14 V
2026-09-05 20:30:25 5RC 0.79% 4.5% 96% 615779 4.14 V
2026-09-05 20:30:25 5RC 0.79% 4.5% 96% 615779 4.14 V
2026-09-05 20:30:15 IIXF 856.4 hPa 61.29% 15.77°C 123.62 Ohm
2026-09-05 20:30:15 IIXF 856.4 hPa 61.29% 15.77°C 123.62 Ohm
2026-09-05 20:30:11 3bb8 1.33% 13.5% 101% 2615878 5.03 V
2026-09-05 20:30:10 3bb8 1.33% 13.5% 101% 2615878 5.03 V
2026-09-05 20:29:56 WCS1 0.54% 0.0% 101% 71992 1.3 V
2026-09-05 20:29:56 WCS1 0.54% 0.0% 101% 71992 1.3 V
2026-09-05 20:28:56 WCS1 860.92 hPa 42.42% 22.31°C
2026-09-05 20:28:56 WCS1 860.92 hPa 42.42% 22.31°C
2026-09-05 20:28:13 LRX1 1009.28 hPa 38.88% 22.58°C
2026-09-05 20:28:12 LRX1 0.87% 0.0% 101% 8431581 4.84 V
2026-09-05 20:28:11 LRX1 0.87% 0.0% 101% 8431581 4.84 V
2026-09-05 20:28:09 LRX1 0.87% 0.0% 101% 8431581 4.84 V
2026-09-05 20:28:08 LRX1 0.87% 0.0% 101% 8431581 4.84 V
2026-09-05 20:27:46 7274 0.66% 1.1% 100% 2646466 4.11 V
2026-09-05 20:27:46 7274 0.66% 1.1% 100% 2646466 4.11 V
2026-09-05 20:26:35 ah03 0.85% 3.9% 81% 4137245 4.0 V
2026-09-05 20:26:35 ah03 0.85% 3.9% 81% 4137245 4.0 V
2026-09-05 20:26:31 ah03 0.85% 3.9% 81% 4137245 4.0 V
2026-09-05 20:26:31 ah03 0.85% 3.9% 81% 4137245 4.0 V
2026-09-05 20:26:27 Rhee 0.82% 2.0% 94% 283258 4.03 V
2026-09-05 20:26:27 Rhee 0.82% 2.0% 94% 283258 4.03 V
2026-09-05 20:25:57 TG08 1.02% 2.0% 19% 118023 3.69 V
2026-09-05 20:24:55 WCS1 0.54% 0.0% 101% 71691 1.3 V
2026-09-05 20:24:55 WCS1 0.54% 0.0% 101% 71691 1.3 V
2026-09-05 20:24:30 TTBM 1.44% 0.0% 101% 27979 4.36 V
2026-09-05 20:24:29 TTBM 1.44% 0.0% 101% 27979 4.36 V
2026-09-05 20:23:55 WCS1 860.92 hPa 42.4% 22.33°C
2026-09-05 20:23:55 WCS1 860.92 hPa 42.4% 22.33°C
2026-09-05 20:21:52 ah03
2026-09-05 20:21:52 ah03
2026-09-05 20:21:47 ah03
2026-09-05 20:21:47 ah03
2026-09-05 20:19:54 WCS1 0.54% 0.0% 101% 71390 1.31 V
2026-09-05 20:19:54 WCS1 0.54% 0.0% 101% 71390 1.31 V
2026-09-05 20:19:01 EEPa 852.43 hPa 59.59% 18.64°C
2026-09-05 20:19:01 EEPa 852.43 hPa 59.59% 18.64°C
2026-09-05 20:18:54 WCS1 861.0 hPa 42.41% 22.31°C
2026-09-05 20:18:54 WCS1 861.0 hPa 42.41% 22.31°C
2026-09-05 20:17:41 ah01 0.32% 0.0% 96% 6428971 4.15 V
2026-09-05 20:17:40 ah01 0.32% 0.0% 96% 6428971 4.15 V
2026-09-05 20:17:09 LMGB 0.19% 0.5% 101% 49744 -0.0 V
2026-09-05 20:17:08 LMGB 0.19% 0.5% 101% 49744 -0.0 V
2026-09-05 20:14:53 WCS1 0.57% 0.0% 101% 71089 1.3 V
2026-09-05 20:14:52 WCS1 0.57% 0.0% 101% 71089 1.3 V
2026-09-05 20:13:53 WCS1 860.9 hPa 42.39% 22.33°C
2026-09-05 20:13:52 WCS1 860.9 hPa 42.39% 22.33°C
2026-09-05 20:12:56 IIXF 1.11% 3.8% 101% 1403685 4.23 V
2026-09-05 20:12:56 IIXF 1.11% 3.8% 101% 1403685 4.23 V
2026-09-05 20:12:15 IIXF 856.4 hPa 61.29% 15.77°C 123.62 Ohm
2026-09-05 20:12:14 IIXF 856.4 hPa 61.29% 15.77°C 123.62 Ohm
2026-09-05 20:11:52 BB04 1.51% 5.3% 101% 1119269 -0.0 V
2026-09-05 20:11:51 BB04 1.51% 5.3% 101% 1119269 -0.0 V
2026-09-05 20:11:28 TG08 20.94°C
2026-09-05 20:11:27 RF01 0.74% 6.9% 99% 1657081 4.19 V
2026-09-05 20:11:27 RF01 0.74% 6.9% 99% 1657081 4.19 V
2026-09-05 20:11:27 RF01 0.74% 6.9% 99% 1657081 4.19 V
2026-09-05 20:09:52 WCS1 0.57% 0.0% 101% 70788 1.3 V
2026-09-05 20:09:51 WCS1 0.57% 0.0% 101% 70788 1.3 V
2026-09-05 20:09:48 5RC 1022.49 hPa 53.86% 19.26°C
2026-09-05 20:09:48 5RC 1022.49 hPa 53.86% 19.26°C
2026-09-05 20:09:36 5RC 1022.49 hPa 53.86% 19.26°C
2026-09-05 20:09:36 5RC 1022.49 hPa 53.86% 19.26°C
2026-09-05 20:08:52 WCS1 860.9 hPa 42.38% 22.34°C
2026-09-05 20:08:51 WCS1 860.9 hPa 42.38% 22.34°C
2026-09-05 20:08:34 LML2 0.18% 1.2% 100% 779885 4.15 V
2026-09-05 20:08:34 LML2 0.18% 1.2% 100% 779885 4.15 V
2026-09-05 20:07:37 htec 2.76% 5.5% 101% 71507 4.27 V
2026-09-05 20:07:37 htec 2.76% 5.5% 101% 71507 4.27 V
2026-09-05 20:07:14 LRX1 0.82% 0.0% 101% 8430321 4.84 V
2026-09-05 20:07:13 LRX1 0.82% 0.0% 101% 8430321 4.84 V
2026-09-05 20:07:13 LRX1 0.82% 0.0% 101% 8430321 4.84 V
2026-09-05 20:05:21 Rhee 0.84% 2.0% 95% 281998 4.04 V
2026-09-05 20:05:20 Rhee 0.84% 2.0% 95% 281998 4.04 V
2026-09-05 20:04:51 WCS1 0.57% 0.0% 101% 70487 1.3 V
2026-09-05 20:04:50 WCS1 0.57% 0.0% 101% 70487 1.3 V
2026-09-05 20:04:19 dc64 0.37% 2.1% 64% 1547654 3.84 V
2026-09-05 20:04:18 dc64 0.37% 2.1% 64% 1547654 3.84 V
2026-09-05 20:03:51 WCS1 860.82 hPa 42.36% 22.35°C
2026-09-05 20:03:50 WCS1 860.82 hPa 42.36% 22.35°C
2026-09-05 20:03:28 RF03 0.08% 0.0% 99% 1426246 4.19 V
2026-09-05 20:03:28 RF03 0.08% 0.0% 99% 1426246 4.19 V
2026-09-05 20:03:28 RF03 0.08% 0.0% 99% 1426246 4.19 V
2026-09-05 20:03:03 EEPr 0.18% 3.0% 101% 2540074 4.34 V
2026-09-05 20:03:03 EEPr 0.18% 3.0% 101% 2540074 4.34 V
2026-09-05 20:02:12 EN11 0.04% 5.0% 101% 4805 4.13 V
2026-09-05 20:02:11 EN11 0.04% 5.0% 101% 4805 4.13 V
2026-09-05 20:02:09 EN11 0.04% 5.0% 101% 4805 4.13 V
2026-09-05 20:02:08 EN11 0.04% 5.0% 101% 4805 4.13 V
2026-09-05 20:02:08 EN11 0.04% 5.0% 101% 4805 4.13 V
2026-09-05 20:00:25 5RC 0.87% 0.0% 99% 613978 4.18 V
2026-09-05 20:00:24 5RC 0.87% 0.0% 99% 613978 4.18 V
2026-09-05 19:59:50 WCS1 0.57% 0.0% 101% 70186 1.3 V
2026-09-05 19:59:49 WCS1 0.57% 0.0% 101% 70186 1.3 V
2026-09-05 19:59:45 ah01 0.32% 0.0% 96% 6427890 4.15 V
2026-09-05 19:59:44 ah01 0.32% 0.0% 96% 6427890 4.15 V
2026-09-05 19:59:39 ah01 0.32% 0.0% 96% 6427890 4.15 V
2026-09-05 19:59:39 ah01 0.32% 0.0% 96% 6427890 4.15 V
2026-09-05 19:58:50 WCS1 860.82 hPa 42.36% 22.36°C
2026-09-05 19:58:49 WCS1 860.82 hPa 42.36% 22.36°C
2026-09-05 19:56:54 DOS 1.34% 3.9% 99% 463963 4.19 V
2026-09-05 19:56:54 DOS 1.34% 3.9% 99% 463963 4.19 V
2026-09-05 19:56:39 DOS 1.34% 3.9% 99% 463963 4.19 V
2026-09-05 19:56:39 DOS 1.34% 3.9% 99% 463963 4.19 V
2026-09-05 19:56:28 ah03 696.34 hPa 62.11% 27.0°C
2026-09-05 19:56:28 ah03 696.34 hPa 62.11% 27.0°C
2026-09-05 19:56:22 ah03 696.34 hPa 62.11% 27.0°C
2026-09-05 19:56:22 ah03 0.85% 1.9% 81% 4135427 4.0 V
2026-09-05 19:56:22 ah03 0.85% 1.9% 81% 4135427 4.0 V
2026-09-05 19:56:16 ah03 0.85% 1.9% 81% 4135427 4.0 V
2026-09-05 19:56:16 ah03 0.85% 1.9% 81% 4135427 4.0 V
2026-09-05 19:55:56 TG08 0.92% 0.0% 22% 116221 3.7 V
2026-09-05 19:54:56 IIXF 1.14% 5.0% 101% 1402605 4.27 V
2026-09-05 19:54:56 IIXF 1.14% 5.0% 101% 1402605 4.27 V
2026-09-05 19:54:49 WCS1 0.57% 0.0% 101% 69885 1.3 V
2026-09-05 19:54:48 WCS1 0.57% 0.0% 101% 69885 1.3 V
2026-09-05 19:54:44 PTRH 0.41% 0.0% 51% 1667627 3.73 V
2026-09-05 19:54:44 PTRH 0.41% 0.0% 51% 1667627 3.73 V
2026-09-05 19:54:30 TTBM 1.43% 0.0% 101% 26179 4.36 V
2026-09-05 19:54:29 TTBM 1.43% 0.0% 101% 26179 4.36 V
2026-09-05 19:54:15 IIXF 856.4 hPa 61.29% 15.77°C 123.62 Ohm
2026-09-05 19:54:14 IIXF 856.4 hPa 61.29% 15.77°C 123.62 Ohm
2026-09-05 19:53:49 WCS1 860.78 hPa 42.35% 22.37°C
2026-09-05 19:53:48 WCS1 860.78 hPa 42.35% 22.37°C
2026-09-05 19:51:50 7274 0.57% 1.1% 100% 2644306 4.11 V
2026-09-05 19:51:49 7274 0.57% 1.1% 100% 2644306 4.11 V
2026-09-05 19:51:35 ah03
2026-09-05 19:51:35 ah03
2026-09-05 19:51:31 ah03
2026-09-05 19:51:31 ah03
2026-09-05 19:49:48 WCS1 0.57% 0.0% 101% 69584 1.3 V
2026-09-05 19:49:47 WCS1 0.57% 0.0% 101% 69584 1.3 V
2026-09-05 19:48:48 WCS1 860.72 hPa 42.32% 22.38°C
2026-09-05 19:48:47 WCS1 860.72 hPa 42.32% 22.38°C
2026-09-05 19:48:09 3bb8 1.26% 7.6% 101% 2613358 5.05 V
2026-09-05 19:48:08 3bb8 1.26% 7.6% 101% 2613358 5.05 V
2026-09-05 19:47:42 DJMH 0.27% 1.7% 85% 17255477 4.02 V
2026-09-05 19:47:42 DJMH 0.27% 1.7% 85% 17255477 4.02 V
2026-09-05 19:46:14 LRX1 0.74% 4.8% 101% 8429061 4.85 V
2026-09-05 19:46:14 LRX1 0.74% 4.8% 101% 8429061 4.85 V
2026-09-05 19:46:05 LRX1 0.74% 4.8% 101% 8429061 4.85 V
2026-09-05 19:46:05 LRX1 0.74% 4.8% 101% 8429061 4.85 V
2026-09-05 19:44:47 WCS1 0.57% 0.0% 101% 69283 1.3 V
2026-09-05 19:44:46 WCS1 0.57% 0.0% 101% 69283 1.3 V
2026-09-05 19:43:47 WCS1 860.64 hPa 42.32% 22.38°C
2026-09-05 19:43:46 WCS1 860.64 hPa 42.32% 22.38°C
2026-09-05 19:43:08 EN06 0.46% 3.2% 60% 358626 3.8 V
2026-09-05 19:43:05 EN06 0.46% 3.2% 60% 358626 3.8 V
2026-09-05 19:43:05 EN06 0.46% 3.2% 60% 358626 3.8 V
2026-09-05 19:42:54 EEPa 851.68 hPa 58.93% 18.65°C
2026-09-05 19:42:54 EEPa 851.68 hPa 58.93% 18.65°C
2026-09-05 19:41:43 ah01 0.32% 0.0% 96% 6426809 4.15 V
2026-09-05 19:41:43 ah01 0.32% 0.0% 96% 6426809 4.15 V
2026-09-05 19:41:39 ah01 0.32% 0.0% 96% 6426809 4.15 V
2026-09-05 19:41:38 ah01 0.32% 0.0% 96% 6426809 4.15 V
2026-09-05 19:41:29 TG08 21.84°C
2026-09-05 19:41:08 LMGB 0.19% 0.5% 101% 47584 -0.0 V
2026-09-05 19:41:08 LMGB 0.19% 0.5% 101% 47584 -0.0 V
2026-09-05 19:39:46 WCS1 0.57% 0.0% 101% 68982 1.3 V
2026-09-05 19:39:45 WCS1 0.57% 0.0% 101% 68982 1.3 V
2026-09-05 19:39:35 5RC 1022.52 hPa 53.17% 19.31°C
2026-09-05 19:39:35 5RC 1022.52 hPa 53.17% 19.31°C
2026-09-05 19:38:46 WCS1 860.56 hPa 42.27% 22.4°C
2026-09-05 19:38:45 WCS1 860.56 hPa 42.27% 22.4°C
2026-09-05 19:36:56 IIXF 1.18% 2.8% 86% 1401525 4.03 V
2026-09-05 19:36:56 IIXF 1.18% 2.8% 86% 1401525 4.03 V
2026-09-05 19:36:18 2c98 0.08% 0.0% 101% 140508 4.16 V
2026-09-05 19:36:18 2c98 0.08% 0.0% 101% 140508 4.16 V
2026-09-05 19:36:15 IIXF 856.3 hPa 62.45% 15.37°C 119.41 Ohm
2026-09-05 19:36:14 IIXF 856.3 hPa 62.45% 15.37°C 119.41 Ohm
2026-09-05 19:35:13 ah02 67.15% 17.03°C
2026-09-05 19:35:12 ah02 67.15% 17.03°C
2026-09-05 19:35:08 ah02 67.15% 17.03°C
2026-09-05 19:35:08 ah02 67.15% 17.03°C
2026-09-05 19:34:50 ah02 0.04% 8.9% 69% 61 3.88 V
2026-09-05 19:34:50 ah02 0.04% 8.9% 69% 61 3.88 V
2026-09-05 19:34:46 ah02 0.04% 8.9% 69% 61 3.88 V
2026-09-05 19:34:46 ah02 0.04% 8.9% 69% 61 3.88 V
2026-09-05 19:34:45 WCS1 0.57% 0.0% 101% 68681 1.3 V
2026-09-05 19:34:44 WCS1 0.57% 0.0% 101% 68681 1.3 V
2026-09-05 19:33:45 WCS1 860.52 hPa 42.31% 22.41°C
2026-09-05 19:33:44 WCS1 860.52 hPa 42.31% 22.41°C
2026-09-05 19:33:31 RF03 0.07% 3.3% 99% 1424445 4.19 V
2026-09-05 19:33:31 RF03 0.07% 3.3% 99% 1424445 4.19 V
2026-09-05 19:33:27 RF03 0.07% 3.3% 99% 1424445 4.19 V
2026-09-05 19:33:27 RF03 0.07% 3.3% 99% 1424445 4.19 V
2026-09-05 19:33:27 RF03 0.07% 3.3% 99% 1424445 4.19 V
2026-09-05 19:32:57 EEPr 0.22% 0.0% 101% 2538268 4.34 V
2026-09-05 19:32:57 EEPr 0.22% 0.0% 101% 2538268 4.34 V
2026-09-05 19:32:34 LML2 0.18% 0.0% 100% 777724 4.15 V
2026-09-05 19:32:33 LML2 0.18% 0.0% 100% 777724 4.15 V
2026-09-05 19:30:31 5RC 0.55% 4.8% 92% 612177 4.08 V
2026-09-05 19:30:30 5RC 0.55% 4.8% 92% 612177 4.08 V
2026-09-05 19:30:29 5RC 0.55% 4.8% 92% 612177 4.08 V
2026-09-05 19:30:25 5RC 0.55% 4.8% 92% 612177 4.08 V
2026-09-05 19:30:25 5RC 0.55% 4.8% 92% 612177 4.08 V
2026-09-05 19:29:43 WCS1 0.57% 0.0% 101% 68380 1.3 V
2026-09-05 19:29:43 WCS1 0.57% 0.0% 101% 68380 1.3 V
2026-09-05 19:29:22 BB04 1.51% 3.0% 101% 1116721 -0.0 V
2026-09-05 19:29:21 BB04 1.51% 3.0% 101% 1116721 -0.0 V
2026-09-05 19:29:21 BB04 1.51% 3.0% 101% 1116721 -0.0 V
2026-09-05 19:28:43 WCS1 860.49 hPa 42.3% 22.41°C
2026-09-05 19:28:43 WCS1 860.49 hPa 42.3% 22.41°C
2026-09-05 19:26:10 ah03 696.34 hPa 61.71% 27.0°C
2026-09-05 19:26:10 ah03 696.34 hPa 61.71% 27.0°C
2026-09-05 19:26:07 ah03 0.85% 3.9% 81% 4133610 4.0 V
2026-09-05 19:26:06 ah03 0.85% 3.9% 81% 4133610 4.0 V
2026-09-05 19:26:02 ah03 696.34 hPa 61.71% 27.0°C
2026-09-05 19:26:01 ah03 0.85% 3.9% 81% 4133610 4.0 V
2026-09-05 19:26:01 ah03 0.85% 3.9% 81% 4133610 4.0 V
2026-09-05 19:25:55 TG08 0.68% 0.0% 24% 114420 3.71 V
2026-09-05 19:25:16 LRX1 1008.47 hPa 38.58% 22.47°C
2026-09-05 19:25:16 LRX1 1008.47 hPa 38.58% 22.47°C
2026-09-05 19:25:10 LRX1 1008.47 hPa 38.58% 22.47°C
2026-09-05 19:25:10 LRX1 1008.47 hPa 38.58% 22.47°C
2026-09-05 19:25:06 LRX1 0.59% 2.4% 101% 8427801 4.84 V
2026-09-05 19:25:05 LRX1 0.59% 2.4% 101% 8427801 4.84 V
2026-09-05 19:24:43 WCS1 0.57% 0.0% 101% 68079 1.3 V
2026-09-05 19:24:42 WCS1 0.57% 0.0% 101% 68079 1.3 V
2026-09-05 19:24:34 RF01 0.55% 1.1% 101% 1654261 4.25 V
2026-09-05 19:24:34 RF01 0.55% 1.1% 101% 1654261 4.25 V
2026-09-05 19:24:30 TTBM 1.26% 2.1% 101% 24379 4.36 V
2026-09-05 19:24:29 TTBM 1.26% 2.1% 101% 24379 4.36 V
2026-09-05 19:24:27 RF01 0.55% 1.1% 101% 1654261 4.25 V
2026-09-05 19:24:27 RF01 0.55% 1.1% 101% 1654261 4.25 V
2026-09-05 19:24:27 RF01 0.55% 1.1% 101% 1654261 4.25 V
2026-09-05 19:23:42 WCS1 860.24 hPa 42.3% 22.4°C
2026-09-05 19:23:42 WCS1 860.24 hPa 42.3% 22.4°C
2026-09-05 19:23:37 ah01 0.29% 0.0% 96% 6425728 4.15 V
2026-09-05 19:23:37 ah01 0.29% 0.0% 96% 6425728 4.15 V
2026-09-05 19:21:12 ah03
2026-09-05 19:21:11 ah03
2026-09-05 19:21:07 ah03
2026-09-05 19:21:06 ah03
2026-09-05 19:19:41 WCS1 0.57% 0.0% 101% 67778 1.3 V
2026-09-05 19:19:41 WCS1 0.57% 0.0% 101% 67778 1.3 V
2026-09-05 19:18:56 IIXF 1.08% 10.0% 98% 1400445 4.17 V
2026-09-05 19:18:56 IIXF 1.08% 10.0% 98% 1400445 4.17 V
2026-09-05 19:18:44 PTRH 0.3% 0.0% 57% 1665467 3.78 V
2026-09-05 19:18:43 PTRH 0.3% 0.0% 57% 1665467 3.78 V
2026-09-05 19:18:41 WCS1 860.16 hPa 42.27% 22.4°C
2026-09-05 19:18:41 WCS1 860.16 hPa 42.27% 22.4°C
2026-09-05 19:18:15 IIXF 855.98 hPa 61.79% 15.58°C 111.05 Ohm
2026-09-05 19:18:14 IIXF 855.98 hPa 61.79% 15.58°C 111.05 Ohm
2026-09-05 19:15:46 7274 0.47% 1.8% 100% 2642145 4.11 V
2026-09-05 19:15:45 7274 0.47% 1.8% 100% 2642145 4.11 V
2026-09-05 19:14:40 WCS1 0.54% 0.0% 101% 67477 1.3 V
2026-09-05 19:14:40 WCS1 0.54% 0.0% 101% 67477 1.3 V
2026-09-05 19:14:39 DOS 1.13% 1.8% 101% 461442 4.23 V
2026-09-05 19:14:38 DOS 1.13% 1.8% 101% 461442 4.23 V
2026-09-05 19:14:36 htec 2.39% 1.9% 101% 68326 4.25 V
2026-09-05 19:14:36 htec 2.39% 1.9% 101% 68326 4.25 V
2026-09-05 19:13:40 WCS1 859.95 hPa 42.3% 22.41°C
2026-09-05 19:13:40 WCS1 859.95 hPa 42.3% 22.41°C
2026-09-05 19:11:26 TG08 22.31°C
2026-09-05 19:09:43 5RC 1021.85 hPa 52.35% 19.65°C
2026-09-05 19:09:43 5RC 1021.85 hPa 52.35% 19.65°C
2026-09-05 19:09:42 5RC 1021.85 hPa 52.35% 19.65°C
2026-09-05 19:09:39 WCS1 0.54% 0.0% 101% 67176 1.3 V
2026-09-05 19:09:39 WCS1 0.54% 0.0% 101% 67176 1.3 V
2026-09-05 19:09:35 5RC 1021.85 hPa 52.35% 19.65°C
2026-09-05 19:09:35 5RC 1021.85 hPa 52.35% 19.65°C
2026-09-05 19:08:39 WCS1 859.76 hPa 42.26% 22.41°C
2026-09-05 19:08:39 WCS1 859.76 hPa 42.26% 22.41°C
2026-09-05 19:06:47 EEPa 851.46 hPa 59.18% 18.65°C
2026-09-05 19:06:47 EEPa 851.46 hPa 59.18% 18.65°C
2026-09-05 19:06:09 3bb8 1.26% 9.3% 101% 2610838 5.04 V
2026-09-05 19:06:08 3bb8 1.26% 9.3% 101% 2610838 5.04 V
2026-09-05 19:05:37 ah01 0.29% 0.9% 96% 6424647 4.15 V
2026-09-05 19:05:36 ah01 0.29% 0.9% 96% 6424647 4.15 V
2026-09-05 19:05:20 Jim1 0.59% 12.4% 94% 17608242 4.12 V
2026-09-05 19:05:19 Jim1 0.59% 12.4% 94% 17608242 4.12 V
2026-09-05 19:05:09 LMGB 0.2% 0.0% 101% 45423 -0.0 V
2026-09-05 19:05:08 LMGB 0.2% 0.0% 101% 45423 -0.0 V
2026-09-05 19:04:39 WCS1 0.54% 0.0% 101% 66875 1.3 V
2026-09-05 19:04:38 WCS1 0.54% 0.0% 101% 66875 1.3 V
2026-09-05 19:04:17 LRX1 1008.37 hPa 38.37% 22.46°C
2026-09-05 19:04:17 LRX1 1008.37 hPa 38.37% 22.46°C
2026-09-05 19:04:13 LRX1 1008.37 hPa 38.37% 22.46°C
2026-09-05 19:04:12 LRX1 1008.37 hPa 38.37% 22.46°C
2026-09-05 19:03:38 WCS1 859.81 hPa 42.21% 22.42°C
2026-09-05 19:03:38 WCS1 859.81 hPa 42.21% 22.42°C
2026-09-05 19:03:32 RF03 0.07% 1.0% 99% 1422644 4.18 V
2026-09-05 19:03:31 RF03 0.07% 1.0% 99% 1422644 4.18 V
2026-09-05 19:03:27 RF03 0.07% 1.0% 99% 1422644 4.18 V
2026-09-05 19:03:26 RF03 0.07% 1.0% 99% 1422644 4.18 V
2026-09-05 19:03:26 RF03 0.07% 1.0% 99% 1422644 4.18 V
2026-09-05 19:02:51 EEPr 0.18% 0.0% 101% 2536462 4.33 V
2026-09-05 19:02:51 EEPr 0.18% 0.0% 101% 2536462 4.33 V
2026-09-05 19:02:07 EN11 0.05% 0.0% 101% 1202 4.09 V
2026-09-05 19:02:07 EN11 0.05% 0.0% 101% 1202 4.09 V
2026-09-05 19:02:07 EN11 0.05% 0.0% 101% 1202 4.09 V
2026-09-05 19:00:56 IIXF 0.9% 5.5% 91% 1399365 4.08 V
2026-09-05 19:00:56 IIXF 0.9% 5.5% 91% 1399365 4.08 V
2026-09-05 19:00:32 5RC 0.25% 0.0% 97% 610376 4.15 V
2026-09-05 19:00:32 5RC 0.25% 0.0% 97% 610376 4.15 V
2026-09-05 19:00:31 5RC 0.25% 0.0% 97% 610376 4.15 V
2026-09-05 19:00:29 5RC 0.25% 0.0% 97% 610376 4.15 V
2026-09-05 19:00:29 5RC 0.25% 0.0% 97% 610376 4.15 V
2026-09-05 19:00:15 IIXF 854.99 hPa 61.29% 15.65°C 125.75 Ohm
2026-09-05 19:00:14 IIXF 854.99 hPa 61.29% 15.65°C 125.75 Ohm
2026-09-05 18:59:37 WCS1 0.54% 0.0% 101% 66574 1.3 V
2026-09-05 18:59:37 WCS1 0.54% 0.0% 101% 66574 1.3 V
2026-09-05 18:58:37 WCS1 859.72 hPa 42.19% 22.45°C
2026-09-05 18:58:37 WCS1 859.72 hPa 42.19% 22.45°C
2026-09-05 18:58:21 38b6 0.12% 2.1% 101% 800994 4.02 V
2026-09-05 18:58:21 38b6 0.12% 2.1% 101% 800994 4.02 V
2026-09-05 18:56:34 LML2 0.19% 0.0% 100% 775564 4.16 V
2026-09-05 18:56:33 LML2 0.19% 0.0% 100% 775564 4.16 V
2026-09-05 18:55:54 TG08 0.88% 0.0% 25% 112619 3.71 V
2026-09-05 18:55:47 ah03 0.85% 2.9% 82% 4131795 4.0 V
2026-09-05 18:55:47 ah03 0.85% 2.9% 82% 4131795 4.0 V
2026-09-05 18:54:36 WCS1 0.54% 0.0% 101% 66273 1.31 V
2026-09-05 18:54:36 WCS1 0.54% 0.0% 101% 66273 1.31 V
2026-09-05 18:53:36 WCS1 859.8 hPa 42.18% 22.45°C
2026-09-05 18:53:36 WCS1 859.8 hPa 42.18% 22.45°C
2026-09-05 18:53:30 TTBM 1.58% 2.7% 101% 22519 4.36 V
2026-09-05 18:53:29 TTBM 1.58% 2.7% 101% 22519 4.36 V
2026-09-05 18:52:46 tge0 2.37% 3.0% 95% 10073286 4.13 V
2026-09-05 18:52:45 tge0 2.37% 3.0% 95% 10073286 4.13 V
2026-09-05 18:50:01 ah03
2026-09-05 18:50:01 ah03
2026-09-05 18:49:56 ah03
2026-09-05 18:49:55 ah03
2026-09-05 18:49:35 WCS1 0.54% 0.0% 101% 65972 1.3 V
2026-09-05 18:49:35 WCS1 0.54% 0.0% 101% 65972 1.3 V
2026-09-05 18:48:35 WCS1 859.69 hPa 42.19% 22.47°C
2026-09-05 18:48:35 WCS1 859.69 hPa 42.19% 22.47°C
2026-09-05 18:47:40 ah01 0.29% 0.0% 96% 6423566 4.15 V
2026-09-05 18:47:39 ah01 0.29% 0.0% 96% 6423566 4.15 V
2026-09-05 18:47:35 ah01 0.29% 0.0% 96% 6423566 4.15 V
2026-09-05 18:47:35 ah01 0.29% 0.0% 96% 6423566 4.15 V
2026-09-05 18:44:42 EEPa 0.12% 0.0% 100% 7062561 4.13 V
2026-09-05 18:44:41 EEPa 0.12% 0.0% 100% 7062561 4.13 V
2026-09-05 18:44:34 WCS1 0.54% 0.0% 101% 65671 1.3 V
2026-09-05 18:44:34 WCS1 0.54% 0.0% 101% 65671 1.3 V
Visit MeshInfo-Lite on Github. Also visit the original MeshInfo by Kevin Elliott.